sensor_id;sensor_type;location;lat;lon;timestamp;P1;durP1;ratioP1;P2;durP2;ratioP2
15968;SDS011;8085;53.472;9.794;2023-09-30T00:01:26;9.73;;;2.22;;
15968;SDS011;8085;53.472;9.794;2023-09-30T00:03:53;16.30;;;2.25;;
15968;SDS011;8085;53.472;9.794;2023-09-30T00:06:21;8.55;;;2.03;;
15968;SDS011;8085;53.472;9.794;2023-09-30T00:08:48;11.38;;;2.25;;
15968;SDS011;8085;53.472;9.794;2023-09-30T00:11:15;7.88;;;2.10;;
15968;SDS011;8085;53.472;9.794;2023-09-30T00:13:43;10.63;;;2.05;;
15968;SDS011;8085;53.472;9.794;2023-09-30T00:16:10;11.10;;;2.00;;
15968;SDS011;8085;53.472;9.794;2023-09-30T00:18:37;9.43;;;2.25;;
15968;SDS011;8085;53.472;9.794;2023-09-30T00:21:05;11.63;;;2.10;;
15968;SDS011;8085;53.472;9.794;2023-09-30T00:23:34;13.45;;;2.58;;
15968;SDS011;8085;53.472;9.794;2023-09-30T00:26:01;12.20;;;1.95;;
15968;SDS011;8085;53.472;9.794;2023-09-30T00:28:27;13.80;;;2.22;;
15968;SDS011;8085;53.472;9.794;2023-09-30T00:30:54;17.67;;;2.33;;
15968;SDS011;8085;53.472;9.794;2023-09-30T00:33:21;10.90;;;2.13;;
15968;SDS011;8085;53.472;9.794;2023-09-30T00:35:48;14.25;;;2.17;;
15968;SDS011;8085;53.472;9.794;2023-09-30T00:38:15;12.18;;;2.10;;
15968;SDS011;8085;53.472;9.794;2023-09-30T00:40:48;9.90;;;1.98;;
15968;SDS011;8085;53.472;9.794;2023-09-30T00:43:19;9.48;;;2.33;;
15968;SDS011;8085;53.472;9.794;2023-09-30T00:45:46;11.32;;;2.28;;
15968;SDS011;8085;53.472;9.794;2023-09-30T00:48:14;8.48;;;2.30;;
15968;SDS011;8085;53.472;9.794;2023-09-30T00:50:41;15.13;;;2.50;;
15968;SDS011;8085;53.472;9.794;2023-09-30T00:53:08;12.18;;;2.17;;
15968;SDS011;8085;53.472;9.794;2023-09-30T00:55:35;6.85;;;2.15;;
15968;SDS011;8085;53.472;9.794;2023-09-30T00:58:04;18.20;;;3.00;;
15968;SDS011;8085;53.472;9.794;2023-09-30T01:00:31;15.82;;;2.03;;
15968;SDS011;8085;53.472;9.794;2023-09-30T01:02:58;9.82;;;2.13;;
15968;SDS011;8085;53.472;9.794;2023-09-30T01:05:29;11.63;;;2.67;;
15968;SDS011;8085;53.472;9.794;2023-09-30T01:07:56;10.60;;;2.00;;
15968;SDS011;8085;53.472;9.794;2023-09-30T01:10:23;9.55;;;2.42;;
15968;SDS011;8085;53.472;9.794;2023-09-30T01:12:50;9.07;;;2.13;;
15968;SDS011;8085;53.472;9.794;2023-09-30T01:15:18;15.73;;;2.95;;
15968;SDS011;8085;53.472;9.794;2023-09-30T01:17:45;12.20;;;2.28;;
15968;SDS011;8085;53.472;9.794;2023-09-30T01:20:12;9.73;;;2.60;;
15968;SDS011;8085;53.472;9.794;2023-09-30T01:22:43;11.25;;;1.70;;
15968;SDS011;8085;53.472;9.794;2023-09-30T01:25:10;12.02;;;2.55;;
15968;SDS011;8085;53.472;9.794;2023-09-30T01:27:37;9.20;;;2.25;;
15968;SDS011;8085;53.472;9.794;2023-09-30T01:30:04;8.85;;;2.30;;
15968;SDS011;8085;53.472;9.794;2023-09-30T01:32:36;20.77;;;2.65;;
15968;SDS011;8085;53.472;9.794;2023-09-30T01:35:03;8.68;;;2.00;;
15968;SDS011;8085;53.472;9.794;2023-09-30T01:37:30;10.93;;;2.33;;
15968;SDS011;8085;53.472;9.794;2023-09-30T01:39:59;6.57;;;2.05;;
15968;SDS011;8085;53.472;9.794;2023-09-30T01:42:25;12.48;;;2.28;;
15968;SDS011;8085;53.472;9.794;2023-09-30T01:44:52;11.10;;;2.38;;
15968;SDS011;8085;53.472;9.794;2023-09-30T01:47:19;12.73;;;2.75;;
15968;SDS011;8085;53.472;9.794;2023-09-30T01:49:46;15.27;;;2.33;;
15968;SDS011;8085;53.472;9.794;2023-09-30T01:52:13;14.85;;;2.47;;
15968;SDS011;8085;53.472;9.794;2023-09-30T01:54:40;14.48;;;2.50;;
15968;SDS011;8085;53.472;9.794;2023-09-30T01:57:08;16.30;;;2.35;;
15968;SDS011;8085;53.472;9.794;2023-09-30T01:59:36;11.73;;;2.08;;
15968;SDS011;8085;53.472;9.794;2023-09-30T02:02:02;11.40;;;2.40;;
15968;SDS011;8085;53.472;9.794;2023-09-30T02:04:29;14.90;;;2.90;;
15968;SDS011;8085;53.472;9.794;2023-09-30T02:06:57;11.95;;;2.50;;
15968;SDS011;8085;53.472;9.794;2023-09-30T02:09:23;21.73;;;2.90;;
15968;SDS011;8085;53.472;9.794;2023-09-30T02:11:51;9.98;;;2.60;;
15968;SDS011;8085;53.472;9.794;2023-09-30T02:14:19;11.30;;;2.30;;
15968;SDS011;8085;53.472;9.794;2023-09-30T02:16:46;13.55;;;3.05;;
15968;SDS011;8085;53.472;9.794;2023-09-30T02:19:12;13.70;;;2.53;;
15968;SDS011;8085;53.472;9.794;2023-09-30T02:21:39;14.65;;;2.70;;
15968;SDS011;8085;53.472;9.794;2023-09-30T02:24:06;11.82;;;2.15;;
15968;SDS011;8085;53.472;9.794;2023-09-30T02:26:33;11.38;;;2.22;;
15968;SDS011;8085;53.472;9.794;2023-09-30T02:29:00;10.35;;;2.45;;
15968;SDS011;8085;53.472;9.794;2023-09-30T02:31:28;13.15;;;2.35;;
15968;SDS011;8085;53.472;9.794;2023-09-30T02:33:55;13.07;;;2.95;;
15968;SDS011;8085;53.472;9.794;2023-09-30T02:36:22;12.65;;;2.40;;
15968;SDS011;8085;53.472;9.794;2023-09-30T02:38:49;12.68;;;2.40;;
15968;SDS011;8085;53.472;9.794;2023-09-30T02:41:16;11.95;;;2.55;;
15968;SDS011;8085;53.472;9.794;2023-09-30T02:43:43;12.13;;;2.55;;
15968;SDS011;8085;53.472;9.794;2023-09-30T02:46:09;12.13;;;2.40;;
15968;SDS011;8085;53.472;9.794;2023-09-30T02:48:38;11.57;;;2.75;;
15968;SDS011;8085;53.472;9.794;2023-09-30T02:51:09;13.13;;;2.67;;
15968;SDS011;8085;53.472;9.794;2023-09-30T02:53:36;10.00;;;2.75;;
15968;SDS011;8085;53.472;9.794;2023-09-30T02:56:03;18.65;;;3.22;;
15968;SDS011;8085;53.472;9.794;2023-09-30T02:58:30;17.38;;;2.88;;
15968;SDS011;8085;53.472;9.794;2023-09-30T03:00:57;15.18;;;2.58;;
15968;SDS011;8085;53.472;9.794;2023-09-30T03:03:24;12.65;;;3.10;;
15968;SDS011;8085;53.472;9.794;2023-09-30T03:05:53;16.95;;;3.08;;
15968;SDS011;8085;53.472;9.794;2023-09-30T03:08:20;14.75;;;2.90;;
15968;SDS011;8085;53.472;9.794;2023-09-30T03:10:50;12.98;;;3.10;;
15968;SDS011;8085;53.472;9.794;2023-09-30T03:13:17;16.88;;;3.10;;
15968;SDS011;8085;53.472;9.794;2023-09-30T03:15:46;11.90;;;2.88;;
15968;SDS011;8085;53.472;9.794;2023-09-30T03:18:14;14.05;;;2.90;;
15968;SDS011;8085;53.472;9.794;2023-09-30T03:20:42;12.18;;;2.83;;
15968;SDS011;8085;53.472;9.794;2023-09-30T03:23:10;9.57;;;2.53;;
15968;SDS011;8085;53.472;9.794;2023-09-30T03:25:39;16.88;;;3.13;;
15968;SDS011;8085;53.472;9.794;2023-09-30T03:28:07;13.52;;;2.92;;
15968;SDS011;8085;53.472;9.794;2023-09-30T03:30:34;15.40;;;3.50;;
15968;SDS011;8085;53.472;9.794;2023-09-30T03:33:01;16.73;;;3.10;;
15968;SDS011;8085;53.472;9.794;2023-09-30T03:35:29;15.27;;;2.90;;
15968;SDS011;8085;53.472;9.794;2023-09-30T03:37:57;18.33;;;3.38;;
15968;SDS011;8085;53.472;9.794;2023-09-30T03:40:26;19.67;;;3.08;;
15968;SDS011;8085;53.472;9.794;2023-09-30T03:42:58;11.13;;;2.88;;
15968;SDS011;8085;53.472;9.794;2023-09-30T03:45:25;15.00;;;2.75;;
15968;SDS011;8085;53.472;9.794;2023-09-30T03:47:52;17.77;;;3.00;;
15968;SDS011;8085;53.472;9.794;2023-09-30T03:50:19;15.88;;;3.60;;
15968;SDS011;8085;53.472;9.794;2023-09-30T03:52:48;16.52;;;3.08;;
15968;SDS011;8085;53.472;9.794;2023-09-30T03:55:15;17.05;;;3.47;;
15968;SDS011;8085;53.472;9.794;2023-09-30T03:57:47;13.80;;;3.10;;
15968;SDS011;8085;53.472;9.794;2023-09-30T04:00:14;18.05;;;3.08;;
15968;SDS011;8085;53.472;9.794;2023-09-30T04:02:44;13.45;;;3.10;;
15968;SDS011;8085;53.472;9.794;2023-09-30T04:05:13;14.27;;;2.70;;
15968;SDS011;8085;53.472;9.794;2023-09-30T04:07:42;16.50;;;3.00;;
15968;SDS011;8085;53.472;9.794;2023-09-30T04:10:09;17.02;;;4.38;;
15968;SDS011;8085;53.472;9.794;2023-09-30T04:12:36;15.15;;;3.80;;
15968;SDS011;8085;53.472;9.794;2023-09-30T04:15:05;20.50;;;3.03;;
15968;SDS011;8085;53.472;9.794;2023-09-30T04:17:34;11.40;;;2.50;;
15968;SDS011;8085;53.472;9.794;2023-09-30T04:20:04;18.05;;;3.22;;
15968;SDS011;8085;53.472;9.794;2023-09-30T04:22:33;12.77;;;2.75;;
15968;SDS011;8085;53.472;9.794;2023-09-30T04:25:00;14.10;;;2.92;;
15968;SDS011;8085;53.472;9.794;2023-09-30T04:27:30;15.27;;;2.78;;
15968;SDS011;8085;53.472;9.794;2023-09-30T04:29:57;13.60;;;2.60;;
15968;SDS011;8085;53.472;9.794;2023-09-30T04:32:25;9.63;;;2.90;;
15968;SDS011;8085;53.472;9.794;2023-09-30T04:34:52;9.82;;;2.67;;
15968;SDS011;8085;53.472;9.794;2023-09-30T04:37:20;13.15;;;2.90;;
15968;SDS011;8085;53.472;9.794;2023-09-30T04:39:46;12.43;;;3.10;;
15968;SDS011;8085;53.472;9.794;2023-09-30T04:42:13;13.55;;;2.80;;
15968;SDS011;8085;53.472;9.794;2023-09-30T04:44:42;13.27;;;2.95;;
15968;SDS011;8085;53.472;9.794;2023-09-30T04:47:09;11.52;;;3.05;;
15968;SDS011;8085;53.472;9.794;2023-09-30T04:49:38;14.93;;;3.22;;
15968;SDS011;8085;53.472;9.794;2023-09-30T04:52:05;14.95;;;2.95;;
15968;SDS011;8085;53.472;9.794;2023-09-30T04:54:33;18.35;;;3.42;;
15968;SDS011;8085;53.472;9.794;2023-09-30T04:57:00;12.65;;;2.90;;
15968;SDS011;8085;53.472;9.794;2023-09-30T04:59:27;15.40;;;2.88;;
15968;SDS011;8085;53.472;9.794;2023-09-30T05:01:54;12.27;;;3.10;;
15968;SDS011;8085;53.472;9.794;2023-09-30T05:04:21;11.13;;;2.88;;
15968;SDS011;8085;53.472;9.794;2023-09-30T05:06:52;13.10;;;3.28;;
15968;SDS011;8085;53.472;9.794;2023-09-30T05:09:19;14.98;;;3.20;;
15968;SDS011;8085;53.472;9.794;2023-09-30T05:11:46;9.73;;;3.05;;
15968;SDS011;8085;53.472;9.794;2023-09-30T05:14:13;15.15;;;3.15;;
15968;SDS011;8085;53.472;9.794;2023-09-30T05:16:41;12.05;;;2.90;;
15968;SDS011;8085;53.472;9.794;2023-09-30T05:19:08;11.73;;;3.30;;
15968;SDS011;8085;53.472;9.794;2023-09-30T05:21:35;15.63;;;3.03;;
15968;SDS011;8085;53.472;9.794;2023-09-30T05:24:04;14.43;;;2.85;;
15968;SDS011;8085;53.472;9.794;2023-09-30T05:26:31;11.52;;;2.75;;
15968;SDS011;8085;53.472;9.794;2023-09-30T05:28:58;15.15;;;2.97;;
15968;SDS011;8085;53.472;9.794;2023-09-30T05:31:25;14.98;;;2.67;;
15968;SDS011;8085;53.472;9.794;2023-09-30T05:33:52;11.70;;;3.13;;
15968;SDS011;8085;53.472;9.794;2023-09-30T05:36:20;8.35;;;3.05;;
15968;SDS011;8085;53.472;9.794;2023-09-30T05:38:47;8.00;;;2.80;;
15968;SDS011;8085;53.472;9.794;2023-09-30T05:41:15;14.05;;;3.33;;
15968;SDS011;8085;53.472;9.794;2023-09-30T05:43:43;17.23;;;3.00;;
15968;SDS011;8085;53.472;9.794;2023-09-30T05:46:10;12.57;;;3.20;;
15968;SDS011;8085;53.472;9.794;2023-09-30T05:48:38;14.70;;;3.38;;
15968;SDS011;8085;53.472;9.794;2023-09-30T05:51:05;8.40;;;3.35;;
15968;SDS011;8085;53.472;9.794;2023-09-30T05:53:32;13.05;;;2.97;;
15968;SDS011;8085;53.472;9.794;2023-09-30T05:55:59;9.93;;;2.97;;
15968;SDS011;8085;53.472;9.794;2023-09-30T05:58:27;10.93;;;3.20;;
15968;SDS011;8085;53.472;9.794;2023-09-30T06:00:54;15.88;;;3.28;;
15968;SDS011;8085;53.472;9.794;2023-09-30T06:03:21;9.77;;;2.97;;
15968;SDS011;8085;53.472;9.794;2023-09-30T06:05:48;11.23;;;3.15;;
15968;SDS011;8085;53.472;9.794;2023-09-30T06:08:14;19.52;;;3.08;;
15968;SDS011;8085;53.472;9.794;2023-09-30T06:10:42;11.73;;;3.40;;
15968;SDS011;8085;53.472;9.794;2023-09-30T06:13:09;17.83;;;3.25;;
15968;SDS011;8085;53.472;9.794;2023-09-30T06:15:38;14.88;;;3.25;;
15968;SDS011;8085;53.472;9.794;2023-09-30T06:18:07;9.55;;;2.95;;
15968;SDS011;8085;53.472;9.794;2023-09-30T06:20:37;16.85;;;3.33;;
15968;SDS011;8085;53.472;9.794;2023-09-30T06:23:04;10.30;;;2.92;;
15968;SDS011;8085;53.472;9.794;2023-09-30T06:25:31;17.45;;;3.15;;
15968;SDS011;8085;53.472;9.794;2023-09-30T06:27:58;15.27;;;3.17;;
15968;SDS011;8085;53.472;9.794;2023-09-30T06:30:25;10.18;;;2.85;;
15968;SDS011;8085;53.472;9.794;2023-09-30T06:32:56;11.07;;;2.67;;
15968;SDS011;8085;53.472;9.794;2023-09-30T06:35:24;15.80;;;3.10;;
15968;SDS011;8085;53.472;9.794;2023-09-30T06:37:51;15.57;;;3.53;;
15968;SDS011;8085;53.472;9.794;2023-09-30T06:40:19;12.93;;;3.08;;
15968;SDS011;8085;53.472;9.794;2023-09-30T06:42:46;12.82;;;3.05;;
15968;SDS011;8085;53.472;9.794;2023-09-30T06:45:12;12.45;;;3.00;;
15968;SDS011;8085;53.472;9.794;2023-09-30T06:47:40;11.23;;;2.72;;
15968;SDS011;8085;53.472;9.794;2023-09-30T06:50:10;14.30;;;2.72;;
15968;SDS011;8085;53.472;9.794;2023-09-30T06:52:41;11.57;;;2.85;;
15968;SDS011;8085;53.472;9.794;2023-09-30T06:55:10;10.50;;;2.90;;
15968;SDS011;8085;53.472;9.794;2023-09-30T06:57:39;13.00;;;3.42;;
15968;SDS011;8085;53.472;9.794;2023-09-30T07:00:07;11.40;;;2.85;;
15968;SDS011;8085;53.472;9.794;2023-09-30T07:02:36;12.77;;;2.90;;
15968;SDS011;8085;53.472;9.794;2023-09-30T07:05:05;10.57;;;2.92;;
15968;SDS011;8085;53.472;9.794;2023-09-30T07:07:34;12.85;;;2.92;;
15968;SDS011;8085;53.472;9.794;2023-09-30T07:10:01;11.68;;;3.15;;
15968;SDS011;8085;53.472;9.794;2023-09-30T07:12:29;19.15;;;2.75;;
15968;SDS011;8085;53.472;9.794;2023-09-30T07:14:56;9.63;;;2.30;;
15968;SDS011;8085;53.472;9.794;2023-09-30T07:17:24;15.65;;;2.85;;
15968;SDS011;8085;53.472;9.794;2023-09-30T07:19:51;10.70;;;2.92;;
15968;SDS011;8085;53.472;9.794;2023-09-30T07:22:18;13.80;;;2.80;;
15968;SDS011;8085;53.472;9.794;2023-09-30T07:24:46;14.07;;;2.88;;
15968;SDS011;8085;53.472;9.794;2023-09-30T07:27:13;17.13;;;2.90;;
15968;SDS011;8085;53.472;9.794;2023-09-30T07:29:40;8.70;;;2.33;;
15968;SDS011;8085;53.472;9.794;2023-09-30T07:32:07;9.50;;;2.38;;
15968;SDS011;8085;53.472;9.794;2023-09-30T07:34:34;11.45;;;2.50;;
15968;SDS011;8085;53.472;9.794;2023-09-30T07:37:01;9.98;;;2.70;;
15968;SDS011;8085;53.472;9.794;2023-09-30T07:39:29;9.93;;;2.47;;
15968;SDS011;8085;53.472;9.794;2023-09-30T07:41:57;11.93;;;2.30;;
15968;SDS011;8085;53.472;9.794;2023-09-30T07:44:24;10.65;;;2.08;;
15968;SDS011;8085;53.472;9.794;2023-09-30T07:46:51;9.73;;;2.53;;
15968;SDS011;8085;53.472;9.794;2023-09-30T07:49:18;8.57;;;2.70;;
15968;SDS011;8085;53.472;9.794;2023-09-30T07:51:45;9.70;;;2.50;;
15968;SDS011;8085;53.472;9.794;2023-09-30T07:54:12;14.23;;;3.45;;
15968;SDS011;8085;53.472;9.794;2023-09-30T07:56:39;9.88;;;3.03;;
15968;SDS011;8085;53.472;9.794;2023-09-30T07:59:07;9.35;;;2.25;;
15968;SDS011;8085;53.472;9.794;2023-09-30T08:01:35;10.80;;;3.08;;
15968;SDS011;8085;53.472;9.794;2023-09-30T08:04:02;12.95;;;2.42;;
15968;SDS011;8085;53.472;9.794;2023-09-30T08:06:29;9.70;;;2.42;;
15968;SDS011;8085;53.472;9.794;2023-09-30T08:08:56;12.88;;;2.10;;
15968;SDS011;8085;53.472;9.794;2023-09-30T08:11:23;9.93;;;2.20;;
15968;SDS011;8085;53.472;9.794;2023-09-30T08:13:52;13.25;;;2.20;;
15968;SDS011;8085;53.472;9.794;2023-09-30T08:16:21;7.65;;;2.05;;
15968;SDS011;8085;53.472;9.794;2023-09-30T08:18:48;7.63;;;1.80;;
15968;SDS011;8085;53.472;9.794;2023-09-30T08:21:15;9.57;;;2.40;;
15968;SDS011;8085;53.472;9.794;2023-09-30T08:23:41;10.57;;;2.20;;
15968;SDS011;8085;53.472;9.794;2023-09-30T08:26:09;12.05;;;1.90;;
15968;SDS011;8085;53.472;9.794;2023-09-30T08:28:36;11.48;;;2.15;;
15968;SDS011;8085;53.472;9.794;2023-09-30T08:31:03;9.65;;;1.75;;
15968;SDS011;8085;53.472;9.794;2023-09-30T08:33:32;7.93;;;1.58;;
15968;SDS011;8085;53.472;9.794;2023-09-30T08:36:01;8.15;;;1.90;;
15968;SDS011;8085;53.472;9.794;2023-09-30T08:38:32;12.13;;;2.35;;
15968;SDS011;8085;53.472;9.794;2023-09-30T08:41:00;6.20;;;1.50;;
15968;SDS011;8085;53.472;9.794;2023-09-30T08:43:28;11.57;;;2.28;;
15968;SDS011;8085;53.472;9.794;2023-09-30T08:45:57;8.05;;;2.20;;
15968;SDS011;8085;53.472;9.794;2023-09-30T08:48:26;8.65;;;1.60;;
15968;SDS011;8085;53.472;9.794;2023-09-30T08:50:54;11.02;;;1.58;;
15968;SDS011;8085;53.472;9.794;2023-09-30T08:53:22;10.35;;;1.95;;
15968;SDS011;8085;53.472;9.794;2023-09-30T08:55:50;7.15;;;1.70;;
15968;SDS011;8085;53.472;9.794;2023-09-30T08:58:20;12.10;;;1.90;;
15968;SDS011;8085;53.472;9.794;2023-09-30T09:00:50;10.20;;;1.40;;
15968;SDS011;8085;53.472;9.794;2023-09-30T09:03:18;10.10;;;1.70;;
15968;SDS011;8085;53.472;9.794;2023-09-30T09:05:46;6.82;;;1.38;;
15968;SDS011;8085;53.472;9.794;2023-09-30T09:08:14;9.77;;;1.50;;
15968;SDS011;8085;53.472;9.794;2023-09-30T09:10:54;7.70;;;2.13;;
15968;SDS011;8085;53.472;9.794;2023-09-30T09:13:22;12.68;;;1.70;;
15968;SDS011;8085;53.472;9.794;2023-09-30T09:15:50;10.25;;;1.70;;
15968;SDS011;8085;53.472;9.794;2023-09-30T09:18:33;6.90;;;1.40;;
15968;SDS011;8085;53.472;9.794;2023-09-30T09:21:11;11.20;;;1.80;;
15968;SDS011;8085;53.472;9.794;2023-09-30T09:23:40;7.55;;;1.50;;
15968;SDS011;8085;53.472;9.794;2023-09-30T09:26:09;6.47;;;1.30;;
15968;SDS011;8085;53.472;9.794;2023-09-30T09:28:37;12.00;;;1.98;;
15968;SDS011;8085;53.472;9.794;2023-09-30T09:31:23;11.40;;;2.30;;
15968;SDS011;8085;53.472;9.794;2023-09-30T09:33:52;9.88;;;1.80;;
15968;SDS011;8085;53.472;9.794;2023-09-30T09:36:19;7.82;;;1.80;;
15968;SDS011;8085;53.472;9.794;2023-09-30T09:38:48;6.78;;;1.42;;
15968;SDS011;8085;53.472;9.794;2023-09-30T09:41:18;9.60;;;1.25;;
15968;SDS011;8085;53.472;9.794;2023-09-30T09:43:48;7.65;;;1.70;;
15968;SDS011;8085;53.472;9.794;2023-09-30T09:46:16;6.30;;;1.40;;
15968;SDS011;8085;53.472;9.794;2023-09-30T09:48:44;7.65;;;1.27;;
15968;SDS011;8085;53.472;9.794;2023-09-30T09:51:12;9.27;;;1.75;;
15968;SDS011;8085;53.472;9.794;2023-09-30T09:53:41;9.23;;;1.30;;
15968;SDS011;8085;53.472;9.794;2023-09-30T09:56:10;10.18;;;1.70;;
15968;SDS011;8085;53.472;9.794;2023-09-30T09:58:39;10.48;;;2.25;;
15968;SDS011;8085;53.472;9.794;2023-09-30T10:01:07;11.90;;;1.42;;
15968;SDS011;8085;53.472;9.794;2023-09-30T10:03:36;8.68;;;1.23;;
15968;SDS011;8085;53.472;9.794;2023-09-30T10:06:04;7.25;;;1.30;;
15968;SDS011;8085;53.472;9.794;2023-09-30T10:08:36;8.73;;;1.60;;
15968;SDS011;8085;53.472;9.794;2023-09-30T10:11:06;11.13;;;1.70;;
15968;SDS011;8085;53.472;9.794;2023-09-30T10:13:51;5.72;;;1.20;;
15968;SDS011;8085;53.472;9.794;2023-09-30T10:19:14;8.75;;;1.63;;
15968;SDS011;8085;53.472;9.794;2023-09-30T10:24:48;8.85;;;1.42;;
15968;SDS011;8085;53.472;9.794;2023-09-30T10:30:11;7.97;;;1.30;;
15968;SDS011;8085;53.472;9.794;2023-09-30T10:35:42;7.80;;;1.10;;
15968;SDS011;8085;53.472;9.794;2023-09-30T10:41:07;8.02;;;1.40;;
15968;SDS011;8085;53.472;9.794;2023-09-30T10:43:37;7.85;;;1.30;;
15968;SDS011;8085;53.472;9.794;2023-09-30T10:51:50;10.48;;;1.30;;
15968;SDS011;8085;53.472;9.794;2023-09-30T10:54:22;6.50;;;1.10;;
15968;SDS011;8085;53.472;9.794;2023-09-30T10:56:52;7.43;;;1.38;;
15968;SDS011;8085;53.472;9.794;2023-09-30T10:59:20;9.23;;;1.38;;
15968;SDS011;8085;53.472;9.794;2023-09-30T11:01:49;5.65;;;0.93;;
15968;SDS011;8085;53.472;9.794;2023-09-30T11:04:18;11.73;;;1.55;;
15968;SDS011;8085;53.472;9.794;2023-09-30T11:06:46;9.32;;;1.27;;
15968;SDS011;8085;53.472;9.794;2023-09-30T11:09:18;12.50;;;0.93;;
15968;SDS011;8085;53.472;9.794;2023-09-30T11:11:45;9.13;;;1.40;;
15968;SDS011;8085;53.472;9.794;2023-09-30T11:14:18;7.43;;;1.30;;
15968;SDS011;8085;53.472;9.794;2023-09-30T11:16:46;5.63;;;1.00;;
15968;SDS011;8085;53.472;9.794;2023-09-30T11:19:16;8.02;;;1.15;;
15968;SDS011;8085;53.472;9.794;2023-09-30T11:21:43;8.65;;;1.10;;
15968;SDS011;8085;53.472;9.794;2023-09-30T11:24:10;4.45;;;1.05;;
15968;SDS011;8085;53.472;9.794;2023-09-30T11:26:38;5.97;;;1.15;;
15968;SDS011;8085;53.472;9.794;2023-09-30T11:29:07;5.78;;;0.90;;
15968;SDS011;8085;53.472;9.794;2023-09-30T11:31:39;8.45;;;1.33;;
15968;SDS011;8085;53.472;9.794;2023-09-30T11:34:07;4.90;;;1.15;;
15968;SDS011;8085;53.472;9.794;2023-09-30T11:36:38;6.30;;;0.88;;
15968;SDS011;8085;53.472;9.794;2023-09-30T11:39:07;5.10;;;1.38;;
15968;SDS011;8085;53.472;9.794;2023-09-30T11:41:35;5.70;;;0.85;;
15968;SDS011;8085;53.472;9.794;2023-09-30T11:44:07;5.95;;;0.90;;
15968;SDS011;8085;53.472;9.794;2023-09-30T11:46:48;5.90;;;0.98;;
15968;SDS011;8085;53.472;9.794;2023-09-30T11:49:24;7.88;;;1.20;;
15968;SDS011;8085;53.472;9.794;2023-09-30T11:51:54;4.65;;;1.00;;
15968;SDS011;8085;53.472;9.794;2023-09-30T11:54:21;4.40;;;0.82;;
15968;SDS011;8085;53.472;9.794;2023-09-30T11:56:48;5.97;;;1.00;;
15968;SDS011;8085;53.472;9.794;2023-09-30T11:59:16;8.98;;;1.20;;
15968;SDS011;8085;53.472;9.794;2023-09-30T12:01:47;6.57;;;0.88;;
15968;SDS011;8085;53.472;9.794;2023-09-30T12:04:17;6.30;;;1.02;;
15968;SDS011;8085;53.472;9.794;2023-09-30T12:06:44;7.07;;;1.25;;
15968;SDS011;8085;53.472;9.794;2023-09-30T12:09:13;6.47;;;1.00;;
15968;SDS011;8085;53.472;9.794;2023-09-30T12:11:41;8.50;;;1.00;;
15968;SDS011;8085;53.472;9.794;2023-09-30T12:14:09;6.13;;;0.93;;
15968;SDS011;8085;53.472;9.794;2023-09-30T12:16:37;11.80;;;1.20;;
15968;SDS011;8085;53.472;9.794;2023-09-30T12:19:04;6.45;;;1.02;;
15968;SDS011;8085;53.472;9.794;2023-09-30T12:21:32;6.00;;;1.10;;
15968;SDS011;8085;53.472;9.794;2023-09-30T12:23:59;5.90;;;0.88;;
15968;SDS011;8085;53.472;9.794;2023-09-30T12:26:28;5.78;;;1.55;;
15968;SDS011;8085;53.472;9.794;2023-09-30T12:28:55;6.57;;;0.93;;
15968;SDS011;8085;53.472;9.794;2023-09-30T12:31:23;5.18;;;0.90;;
15968;SDS011;8085;53.472;9.794;2023-09-30T12:33:50;4.50;;;0.80;;
15968;SDS011;8085;53.472;9.794;2023-09-30T12:36:17;4.10;;;0.73;;
15968;SDS011;8085;53.472;9.794;2023-09-30T12:38:44;5.35;;;0.95;;
15968;SDS011;8085;53.472;9.794;2023-09-30T12:41:12;3.67;;;0.80;;
15968;SDS011;8085;53.472;9.794;2023-09-30T12:43:40;2.15;;;0.57;;
15968;SDS011;8085;53.472;9.794;2023-09-30T12:46:07;8.25;;;1.02;;
15968;SDS011;8085;53.472;9.794;2023-09-30T12:48:34;10.10;;;0.90;;
15968;SDS011;8085;53.472;9.794;2023-09-30T12:51:03;1.77;;;0.80;;
15968;SDS011;8085;53.472;9.794;2023-09-30T12:53:31;3.20;;;0.70;;
15968;SDS011;8085;53.472;9.794;2023-09-30T12:55:59;8.10;;;0.98;;
15968;SDS011;8085;53.472;9.794;2023-09-30T12:58:26;3.72;;;0.88;;
15968;SDS011;8085;53.472;9.794;2023-09-30T13:00:55;4.40;;;0.90;;
15968;SDS011;8085;53.472;9.794;2023-09-30T13:03:22;5.93;;;0.88;;
15968;SDS011;8085;53.472;9.794;2023-09-30T13:05:49;5.25;;;1.00;;
15968;SDS011;8085;53.472;9.794;2023-09-30T13:08:16;6.15;;;1.20;;
15968;SDS011;8085;53.472;9.794;2023-09-30T13:10:43;3.53;;;0.80;;
15968;SDS011;8085;53.472;9.794;2023-09-30T13:13:11;4.90;;;1.05;;
15968;SDS011;8085;53.472;9.794;2023-09-30T13:15:38;4.88;;;0.90;;
15968;SDS011;8085;53.472;9.794;2023-09-30T13:18:07;5.72;;;1.02;;
15968;SDS011;8085;53.472;9.794;2023-09-30T13:20:34;5.47;;;1.48;;
15968;SDS011;8085;53.472;9.794;2023-09-30T13:23:00;4.65;;;1.52;;
15968;SDS011;8085;53.472;9.794;2023-09-30T13:25:28;5.75;;;1.33;;
15968;SDS011;8085;53.472;9.794;2023-09-30T13:27:55;6.50;;;1.73;;
15968;SDS011;8085;53.472;9.794;2023-09-30T13:30:23;6.88;;;0.80;;
15968;SDS011;8085;53.472;9.794;2023-09-30T13:32:49;7.03;;;1.55;;
15968;SDS011;8085;53.472;9.794;2023-09-30T13:35:18;6.05;;;0.90;;
15968;SDS011;8085;53.472;9.794;2023-09-30T13:37:45;5.88;;;0.70;;
15968;SDS011;8085;53.472;9.794;2023-09-30T13:40:12;4.90;;;1.23;;
15968;SDS011;8085;53.472;9.794;2023-09-30T13:42:39;5.05;;;1.00;;
15968;SDS011;8085;53.472;9.794;2023-09-30T13:45:07;4.25;;;1.27;;
15968;SDS011;8085;53.472;9.794;2023-09-30T13:47:35;5.95;;;1.10;;
15968;SDS011;8085;53.472;9.794;2023-09-30T13:50:02;4.70;;;0.82;;
15968;SDS011;8085;53.472;9.794;2023-09-30T13:52:33;6.63;;;0.93;;
15968;SDS011;8085;53.472;9.794;2023-09-30T13:55:00;5.15;;;0.70;;
15968;SDS011;8085;53.472;9.794;2023-09-30T13:57:28;6.20;;;0.80;;
15968;SDS011;8085;53.472;9.794;2023-09-30T13:59:55;6.95;;;1.08;;
15968;SDS011;8085;53.472;9.794;2023-09-30T14:02:22;5.05;;;1.05;;
15968;SDS011;8085;53.472;9.794;2023-09-30T14:04:49;5.45;;;1.08;;
15968;SDS011;8085;53.472;9.794;2023-09-30T14:07:16;4.55;;;0.88;;
15968;SDS011;8085;53.472;9.794;2023-09-30T14:09:45;5.93;;;0.88;;
15968;SDS011;8085;53.472;9.794;2023-09-30T14:12:12;4.45;;;0.90;;
15968;SDS011;8085;53.472;9.794;2023-09-30T14:14:39;5.63;;;0.73;;
15968;SDS011;8085;53.472;9.794;2023-09-30T14:17:07;5.75;;;0.82;;
15968;SDS011;8085;53.472;9.794;2023-09-30T14:19:35;3.65;;;0.93;;
15968;SDS011;8085;53.472;9.794;2023-09-30T14:22:04;6.05;;;0.60;;
15968;SDS011;8085;53.472;9.794;2023-09-30T14:24:31;5.80;;;1.17;;
15968;SDS011;8085;53.472;9.794;2023-09-30T14:27:00;4.53;;;0.98;;
15968;SDS011;8085;53.472;9.794;2023-09-30T14:29:28;5.53;;;1.10;;
15968;SDS011;8085;53.472;9.794;2023-09-30T14:31:55;3.92;;;0.90;;
15968;SDS011;8085;53.472;9.794;2023-09-30T14:34:22;2.63;;;0.80;;
15968;SDS011;8085;53.472;9.794;2023-09-30T14:36:49;4.22;;;0.98;;
15968;SDS011;8085;53.472;9.794;2023-09-30T14:39:17;8.95;;;1.13;;
15968;SDS011;8085;53.472;9.794;2023-09-30T14:41:45;3.78;;;0.88;;
15968;SDS011;8085;53.472;9.794;2023-09-30T14:44:13;8.10;;;0.90;;
15968;SDS011;8085;53.472;9.794;2023-09-30T14:46:40;4.53;;;1.02;;
15968;SDS011;8085;53.472;9.794;2023-09-30T14:49:08;8.02;;;1.00;;
15968;SDS011;8085;53.472;9.794;2023-09-30T14:51:35;4.57;;;0.85;;
15968;SDS011;8085;53.472;9.794;2023-09-30T14:54:03;4.97;;;0.80;;
15968;SDS011;8085;53.472;9.794;2023-09-30T14:56:30;2.40;;;0.93;;
15968;SDS011;8085;53.472;9.794;2023-09-30T14:58:57;4.78;;;1.08;;
15968;SDS011;8085;53.472;9.794;2023-09-30T15:01:26;3.60;;;1.00;;
15968;SDS011;8085;53.472;9.794;2023-09-30T15:03:54;6.15;;;1.48;;
15968;SDS011;8085;53.472;9.794;2023-09-30T15:06:21;5.43;;;0.90;;
15968;SDS011;8085;53.472;9.794;2023-09-30T15:08:49;4.10;;;0.98;;
15968;SDS011;8085;53.472;9.794;2023-09-30T15:11:16;5.63;;;1.02;;
15968;SDS011;8085;53.472;9.794;2023-09-30T15:13:43;3.45;;;1.02;;
15968;SDS011;8085;53.472;9.794;2023-09-30T15:16:14;4.90;;;1.25;;
15968;SDS011;8085;53.472;9.794;2023-09-30T15:18:44;6.90;;;0.98;;
15968;SDS011;8085;53.472;9.794;2023-09-30T15:21:12;5.07;;;1.08;;